• Join FlightAware (Why Join?)
  • Login
  • US Flag 
11:51AM EST


 

Airport Tracker/Info


-or-


 

Live Flight TrackerFlight Track Log ✈ SKW4581 ✈ 26-Jun-2012 ✈ KDFW - KSLC

Flight Track Log - Related Links

Times and Time Zones

All times are in EDT time to prevent confusion due to time zone crossing. See the SKW4581 flight status page for this flight to view local times or setup timezone preferences in your user account.

Time Position Orientation Groundspeed Altitude Reporting Facility
EDT Latitude Longitude Course Direction KTS MPH feet Rate Location/Type
08:04PM 32.8753 -97.0522 187° South 168 193 1,400  Level FAA TRACON SMA TRACON (SMA)
08:05PM 32.8431 -97.0567 197° South 192 221 2,200 1,380 Climbing FAA TRACON SMA TRACON (SMA)
08:05PM 32.8031 -97.0714 216° Southwest 221 254 3,300 1,920 Climbing FAA TRACON SMA TRACON (SMA)
08:06PM 32.7683 -97.1011 266° West 242 278 4,800 1,620 Climbing FAA TRACON SMA TRACON (SMA)
08:07PM 32.7653 -97.1525 275° West 259 298 5,500 1,320 Climbing FAA TRACON SMA TRACON (SMA)
08:07PM 32.7700 -97.2189 296° West 296 341 6,600 1,980 Climbing FAA TRACON SMA TRACON (SMA)
08:08PM 32.7950 -97.2786 307° West 297 342 8,200 2,400 Climbing FAA TRACON SMA TRACON (SMA)
08:09PM 32.8258 -97.3267 308° West 299 344 9,800 2,100 Climbing FAA TRACON SMA TRACON (SMA)
08:09PM 32.8619 -97.3811 308° West 303 349 11,000 1,800 Climbing FAA TRACON SMA TRACON (SMA)
08:10PM 32.8994 -97.4383 308° West 315 362 12,300 1,920 Climbing FAA TRACON SMA TRACON (SMA)
08:11PM 32.9331 -97.4894 308° West 319 367 13,600 1,560 Climbing FAA TRACON SMA TRACON (SMA)
08:11PM 32.9725 -97.5494 309° West 331 381 14,500 1,200 Climbing FAA TRACON SMA TRACON (SMA)
08:12PM 33.0158 -97.6133 308° West 360 414 15,200 1,200 Climbing FAA TRACON SMA TRACON (SMA)
08:13PM 33.0550 -97.6733 304° West 374 430 16,100 1,560 Climbing FAA TRACON SMA TRACON (SMA)
08:13PM 33.0953 -97.7458 294° West 381 438 17,300 1,860 Climbing FAA TRACON SMA TRACON (SMA)
08:14PM 33.1219 -97.8183 290° West 389 448 18,600 1,920 Climbing FAA TRACON SMA TRACON (SMA)
08:15PM 33.1497 -97.9103 292° West 383 441 20,000 1,860 Climbing FAA TRACON SMA TRACON (SMA)
08:15PM 33.1747 -97.9828 291° West 381 438 21,100 1,620 Climbing FAA TRACON SMA TRACON (SMA)
08:16PM 33.1981 -98.0547 290° West 379 436 22,100 1,320 Climbing FAA TRACON SMA TRACON (SMA)
08:17PM 33.2206 -98.1275 288° West 380 437 22,900 1,080 Climbing FAA TRACON SMA TRACON (SMA)
08:18PM 33.2664 -98.2978 292° West 398 458 24,300 1,020 Climbing Fort Worth Center
08:19PM 33.3072 -98.4175 298° West 397 457 25,300 900 Climbing Fort Worth Center
08:20PM 33.3606 -98.5400 308° West 402 463 26,100 720 Climbing Fort Worth Center
08:21PM 33.4367 -98.6581 307° West 429 494 26,800 780 Climbing Fort Worth Center
08:22PM 33.5086 -98.7736 307° West 439 505 27,700 900 Climbing Fort Worth Center
08:23PM 33.5886 -98.8997 304° West 464 534 28,600 900 Climbing Fort Worth Center
08:24PM 33.6600 -99.0281 309° West 469 540 29,500 840 Climbing Fort Worth Center
08:25PM 33.7397 -99.1444 308° West 464 534 30,300 840 Climbing Fort Worth Center
08:26PM 33.8194 -99.2686 306° West 459 528 31,200 840 Climbing Fort Worth Center
08:27PM 33.8947 -99.3928 307° West 465 535 32,000 360 Climbing Fort Worth Center
08:28PM 33.9719 -99.5172 307° West 465 535 32,000  Level Fort Worth Center
08:29PM 34.0492 -99.6394 306° West 459 528 32,000  Level Fort Worth Center
08:30PM 34.1242 -99.7644 305° West 459 528 32,000  Level Fort Worth Center
08:31PM 34.1967 -99.8892 307° West 459 528 32,000 240 Level Fort Worth Center
08:32PM 34.2694 -100.0069 306° West 459 528 32,500 600 Climbing Fort Worth Center
08:33PM 34.3381 -100.1222 306° West 459 528 33,200 720 Climbing Fort Worth Center
08:35PM 34.4736 -100.3472 306° West 458 527 34,600 780 Climbing Albuquerque Center
08:36PM 34.5481 -100.4722 306° West 458 527 35,500 780 Climbing Albuquerque Center
08:37PM 34.6222 -100.5950 306° West 454 522 36,300 720 Climbing Albuquerque Center
08:38PM 34.6942 -100.7164 306° West 447 514 37,000 600 Climbing Albuquerque Center
08:39PM 34.7806 -100.8633 306° West 445 512 37,600 480 Climbing Albuquerque Center
08:40PM 34.8528 -100.9856 306° West 445 512 38,000 180 Climbing Albuquerque Center
08:41PM 34.9247 -101.1081 306° West 445 512 38,000  Level Albuquerque Center
08:42PM 34.9986 -101.2344 305° West 450 518 38,000  Level Albuquerque Center
08:43PM 35.0728 -101.3636 306° West 458 527 38,000  Level Albuquerque Center
08:44PM 35.1492 -101.4933 306° West 465 535 38,000  Level Albuquerque Center
08:45PM 35.2267 -101.6228 305° West 468 539 38,000  Level Albuquerque Center
08:46PM 35.3092 -101.7656 306° West 467 537 38,000  Level Albuquerque Center
08:47PM 35.3842 -101.8944 304° West 464 534 38,000  Level Albuquerque Center
08:48PM 35.4517 -102.0189 305° West 459 528 38,000  Level Albuquerque Center
08:49PM 35.5383 -102.1703 305° West 453 521 38,000  Level Albuquerque Center
08:50PM 35.6106 -102.2964 305° West 452 520 38,000  Level Albuquerque Center
08:51PM 35.6811 -102.4228 305° West 450 518 38,000  Level Albuquerque Center
08:52PM 35.7536 -102.5503 305° West 452 520 38,000  Level Albuquerque Center
08:53PM 35.8261 -102.6786 305° West 456 525 38,000  Level Albuquerque Center
08:54PM 35.8975 -102.8069 304° West 454 522 38,000  Level Albuquerque Center
08:55PM 35.9722 -102.9417 310° West 455 524 38,000  Level Albuquerque Center
08:56PM 36.0686 -103.0822 314° West 456 525 38,000  Level Albuquerque Center
08:58PM 36.1575 -103.1950 315° West 457 526 38,000  Level Albuquerque Center
08:59PM 36.2475 -103.3083 315° West 458 527 38,000  Level Albuquerque Center
09:00PM 36.3375 -103.4214 315° West 458 527 38,000  Level Albuquerque Center
09:01PM 36.4286 -103.5347 315° West 460 529 38,000  Level Albuquerque Center
09:02PM 36.5194 -103.6467 315° West 459 528 38,000  Level Albuquerque Center
09:03PM 36.6094 -103.7606 315° West 458 527 38,000  Level Albuquerque Center
09:04PM 36.7106 -103.8878 303° West 456 525 38,000  Level Albuquerque Center
09:05PM 36.7750 -104.0131 302° West 452 520 38,000  Level Albuquerque Center
09:06PM 36.8486 -104.1592 302° West 445 512 38,000  Level Albuquerque Center
09:07PM 36.9122 -104.2856 302° West 446 513 38,000  Level Albuquerque Center
09:08PM 36.9864 -104.4325 301° West 446 513 38,000  Level Albuquerque Center
09:09PM 37.0275 -104.5172 302° West 446 513 38,000  Level Denver Center
09:10PM 37.0906 -104.6439 302° West 446 513 38,000  Level Denver Center
09:11PM 37.1639 -104.7928 302° West 447 514 38,000  Level Denver Center
09:12PM 37.2253 -104.9183 302° West 444 511 38,000  Level Denver Center
09:13PM 37.2983 -105.0669 302° West 445 512 38,000  Level Denver Center
09:14PM 37.3606 -105.1936 301° West 444 511 38,000  Level Denver Center
09:15PM 37.4317 -105.3425 302° West 445 512 38,000  Level Denver Center
09:16PM 37.4950 -105.4692 311° West 445 512 38,000  Level Denver Center
09:17PM 37.5856 -105.6025 311° West 441 507 38,000  Level Denver Center
09:18PM 37.6644 -105.7192 309° West 449 517 38,000  Level Denver Center
09:19PM 37.7403 -105.8375 300° West 449 517 38,000  Level Denver Center
09:20PM 37.8097 -105.9903 300° West 448 516 38,000  Level Denver Center
09:21PM 37.8697 -106.1217 300° West 450 518 38,000  Level Denver Center
09:22PM 37.9406 -106.2744 300° West 449 517 38,000  Level Denver Center
09:23PM 38.0000 -106.4056 300° West 449 517 38,000  Level Denver Center
09:24PM 38.0703 -106.5631 300° West 450 518 38,000  Level Denver Center
09:25PM 38.1297 -106.6942 299° West 448 516 38,000  Level Denver Center
09:26PM 38.1975 -106.8475 300° West 447 514 38,000  Level Denver Center
09:27PM 38.2550 -106.9767 300° West 442 509 38,000  Level Denver Center
09:28PM 38.3222 -107.1272 300° West 439 505 38,000  Level Denver Center
09:29PM 38.3794 -107.2561 299° West 438 504 38,000  Level Denver Center
09:30PM 38.4453 -107.4061 299° West 435 501 38,000  Level Denver Center
09:31PM 38.5017 -107.5369 299° West 437 503 38,000  Level Denver Center
09:32PM 38.5675 -107.6897 299° West 440 506 38,000  Level Denver Center
09:33PM 38.6247 -107.8211 299° West 441 507 38,000  Level Denver Center
09:34PM 38.6914 -107.9772 299° West 446 513 38,000  Level Denver Center
09:35PM 38.7494 -108.1114 299° West 449 517 38,000  Level Denver Center
09:37PM 38.8164 -108.2675 298° West 448 516 38,000  Level Denver Center
09:38PM 38.8728 -108.4033 299° West 449 517 38,000  Level Denver Center
09:39PM 38.9394 -108.5611 299° West 449 517 38,000  Level Denver Center
09:40PM 38.9961 -108.6956 299° West 446 513 38,000  Level Denver Center
09:41PM 39.0522 -108.8261 298° West 438 504 38,000  Level Denver Center
09:42PM 39.1167 -108.9806 298° West 437 503 38,000  Level Denver Center
09:43PM 39.1719 -109.1133 298° West 437 503 38,000 -60 Level Denver Center
09:44PM 39.2358 -109.2678 298° West 435 501 37,900 -540 Descending Denver Center
09:45PM 39.2903 -109.3983 298° West 431 496 36,900 -1,020 Descending Denver Center
09:46PM 39.3525 -109.5469 298° West 422 486 35,800 -960 Descending Denver Center
09:47PM 39.4044 -109.6753 298° West 421 484 34,900 -1,020 Descending Denver Center
09:48PM 39.4658 -109.8269 297° West 423 487 33,700 -1,020 Descending Denver Center
09:49PM 39.5178 -109.9567 298° West 424 488 32,800 -840 Descending Denver Center
09:50PM 39.5786 -110.1061 297° West 421 484 32,000 -420 Descending Denver Center
09:51PM 39.6269 -110.2308 298° West 413 475 32,000 -300 Level Denver Center
09:52PM 39.6758 -110.3503 298° West 399 459 31,500 -1,140 Descending Denver Center
09:53PM 39.7372 -110.5006 296° West 374 430 29,500 -1,560 Descending Salt Lake Center
09:54PM 39.7761 -110.6044 296° West 344 396 28,100 -1,500 Descending Salt Lake Center
09:55PM 39.8231 -110.7286 297° West 337 388 26,400 -1,560 Descending Salt Lake Center
09:56PM 39.8631 -110.8331 297° West 336 387 24,900 -1,500 Descending Salt Lake Center
09:57PM 39.9081 -110.9503 296° West 330 380 23,300 -1,440 Descending Salt Lake Center
09:58PM 39.9453 -111.0483 296° West 320 368 21,900 -1,560 Descending Salt Lake Center
09:59PM 39.9889 -111.1636 296° West 318 366 20,100 -1,560 Descending Salt Lake Center
10:01PM 40.0247 -111.2589 295° West 313 360 18,700 -1,320 Descending Salt Lake Center
10:02PM 40.0603 -111.3567 297° West 300 345 17,400 -1,260 Descending Salt Lake Center
10:03PM 40.1050 -111.4728 296° West 302 348 16,200 -720 Descending Salt Lake Center
10:04PM 40.1417 -111.5717 290° West 299 344 15,900 -120 Descending Salt Lake Center
10:04PM 40.1650 -111.6564 310° West 296 341 16,000  Climbing Salt Lake Center
10:05PM 40.2183 -111.7394 322° Northwest 303 349 15,900 -1,080 Descending Salt Lake Center
10:07PM 40.2917 -111.8156 321° Northwest 308 354 13,800 -1,920 Descending Salt Lake Center
10:07PM 40.3544 -111.8817 327° Northwest 308 354 12,100 -1,560 Descending Salt Lake Center
10:09PM 40.4378 -111.9519 351° North 300 345 10,300 -1,200 Descending Salt Lake Center
10:10PM 40.5158 -111.9678 353° North 277 319 9,500 -1,080 Descending Salt Lake Center
10:11PM 40.5825 -111.9792 357° North 231 266 8,300 -1,320 Descending Salt Lake Center
10:12PM 40.6392 -111.9825 355° North 204 235 6,900 -1,260 Descending Salt Lake Center
10:13PM 40.6833 -111.9872 355° North 182 209 5,900 -960 Descending Salt Lake Center
10:14PM 40.7272 -111.9922 357° North 151 174 5,100 -720 Descending Salt Lake Center
10:15PM 40.7808 -111.9958 357° North 143 165 4,200 -660 Descending Salt Lake Center